WetterOnline ( http://www.wetteronline.de )

Wetter aktuell Putbus/Rügen

Aktuelles Wetter: Putbus/Rügen (41m)

6-stündlich | Neueste Meldungen
Ortszeit Temperatur Wetter
Mo, 18.03. 19:00 3.5° C wolkig
Mo, 18.03. 13:00 6.9° C bewölkt
Mo, 18.03. 7:00 4.3° C leichter Regen
Mo, 18.03. 1:00 3.7° C leicht bewölkt
So, 17.03. 19:00 6.4° C wolkig
So, 17.03. 13:00 6.6° C Sprühregen
So, 17.03. 7:00 8.6° C bedeckt
So, 17.03. 1:00 8.0° C bedeckt
Ortszeit Temperatur Wetter
Mo, 18.03. 20:30 2.8° C wolkenlos
Mo, 18.03. 20:20 2.8° C wolkenlos
Mo, 18.03. 20:10 2.9° C leicht bewölkt
Mo, 18.03. 20:00 3.2° C bewölkt
Mo, 18.03. 19:50 3.2° C bewölkt
Mo, 18.03. 19:40 3.3° C bewölkt
Mo, 18.03. 19:30 3.4° C bewölkt
Mo, 18.03. 19:00 3.5° C wolkig
Mo, 18.03. 18:30 3.0° C Regen
Mo, 18.03. 18:00 5.8° C bewölkt
Mo, 18.03. 17:30 6.1° C bewölkt
Ortszeit Relative Feuchte Sichtweite
Mo, 18.03. 19:00 91% 55 km
Mo, 18.03. 13:00 74% 11 km
Mo, 18.03. 7:00 82% 14 km
Mo, 18.03. 1:00 79% 50 km
So, 17.03. 19:00 74% 60 km
So, 17.03. 13:00 84% 50 km
So, 17.03. 7:00 78% 35 km
So, 17.03. 1:00 91% 14 km
Ortszeit Relative Feuchte Sichtweite
Mo, 18.03. 20:30 92% 65 km
Mo, 18.03. 20:20 92% -
Mo, 18.03. 20:10 92% -
Mo, 18.03. 20:00 90% 65 km
Mo, 18.03. 19:50 90% -
Mo, 18.03. 19:40 90% -
Mo, 18.03. 19:30 94% 45 km
Mo, 18.03. 19:00 91% 55 km
Mo, 18.03. 18:30 92% 4.0 km
Mo, 18.03. 18:00 77% 27 km
Mo, 18.03. 17:30 76% 20 km
Ortszeit Niederschlagsmenge Niederschlagsart
Mo, 18.03. 19:00 3 l/m2 in 12 Std. Schneeschauer
Mo, 18.03. 13:00 0.4 l/m2 in 6 Std. Regen
Mo, 18.03. 7:00 0.1 l/m2 in 12 Std. Regen
Mo, 18.03. 1:00 0.0 l/m2 in 6 Std. -
So, 17.03. 19:00 0.3 l/m2 in 12 Std. Regen
So, 17.03. 13:00 0.3 l/m2 in 6 Std. Regen
So, 17.03. 7:00 4 l/m2 in 12 Std. -
So, 17.03. 1:00 4 l/m2 in 6 Std. Regen
Ortszeit Niederschlagsmenge Niederschlagsart
Mo, 18.03. 20:30 0.0 l/m2 in 1 Std. -
Mo, 18.03. 20:20 keine Meldung -
Mo, 18.03. 20:10 keine Meldung -
Mo, 18.03. 20:00 0.1 l/m2 in 1 Std. Regen
Mo, 18.03. 19:50 keine Meldung -
Mo, 18.03. 19:40 keine Meldung -
Mo, 18.03. 19:30 0.1 l/m2 in 1 Std. Schneeregen
Mo, 18.03. 19:00 2.0 l/m2 in 1 Std. Schneeschauer
Mo, 18.03. 18:30 1.6 l/m2 in 1 Std. -
Mo, 18.03. 18:00 0.1 l/m2 in 1 Std. Regen
Mo, 18.03. 17:30 0.1 l/m2 in 1 Std. Schneeregen
Ortszeit Stärke Spitze Richtung
km/h Bft. km/h Grad Sektor
Mo, 18.03. 19:00 18 3 72 290° W
Mo, 18.03. 13:00 43 6 68 260° W
Mo, 18.03. 7:00 30 5 56 240° SW
Mo, 18.03. 1:00 24 4 46 220° SW
So, 17.03. 19:00 18 3 47 240° SW
So, 17.03. 13:00 26 4 59 260° W
So, 17.03. 7:00 22 4 43 210° SW
So, 17.03. 1:00 22 4 32 220° SW
Ortszeit Stärke Spitze Richtung
km/h Bft. km/h Grad Sektor
Mo, 18.03. 20:30 18 3 29 270° W
Mo, 18.03. 20:20 18 3 - 270° W
Mo, 18.03. 20:10 20 4 - 270° W
Mo, 18.03. 20:00 18 3 29 270° W
Mo, 18.03. 19:50 18 3 - 270° W
Mo, 18.03. 19:40 18 3 - 280° W
Mo, 18.03. 19:30 14 3 25 270° W
Mo, 18.03. 19:00 18 3 47 290° W
Mo, 18.03. 18:30 28 4 46 300° NW
Mo, 18.03. 18:00 28 4 50 270° W
Mo, 18.03. 17:30 30 5 50 270° W
Ortszeit Untergrenze Bedeckung Gattung
total tief tief mittel hoch
Mo, 18.03. 19:00 630 m 6/8 6/8 - - -
Mo, 18.03. 13:00 630 m 7/8 7/8 - - -
Mo, 18.03. 7:00 570 m 8/8 8/8 - - -
Mo, 18.03. 1:00 930 m 2/8 2/8 - - -
So, 17.03. 19:00 1170 m 8/8 2/8 - - -
So, 17.03. 13:00 600 m 8/8 8/8 - - -
So, 17.03. 7:00 1230 m 8/8 8/8 - - -
So, 17.03. 1:00 690 m 8/8 8/8 - - -
Ortszeit Bedeckungsgrad in Achtel und Wolkenuntergrenze
Mo, 18.03. 20:30 keine Wolken
Mo, 18.03. 20:20 keine Wolken
Mo, 18.03. 20:10 1(2100m) 2(2400m)
Mo, 18.03. 20:00 1(1380m) 6(2400m) 7(3000m)
Mo, 18.03. 19:50 1(1380m) 6(2400m) 7(3000m)
Mo, 18.03. 19:40 1(1080m) 6(2100m) 7(3000m)
Mo, 18.03. 19:30 1(840m) 5(1110m) 7(1500m)
Mo, 18.03. 19:00 2(630m) 6(1170m) 6(1500m)
Mo, 18.03. 18:30 1(30m) 7(570m) 8(690m)
Mo, 18.03. 18:00 1(1110m) 7(2100m) 8(2100m)
Mo, 18.03. 17:30 1(1050m) 7(1500m) 7(2100m)
Ortszeit Luftdruck NN (hPa) Tendenz (hPa in 3 Std.)
Mo, 18.03. 19:00 1010 + 3,8
Mo, 18.03. 13:00 1003 + 1,7
Mo, 18.03. 7:00 1000 + 0,5
Mo, 18.03. 1:00 1000 + 0,2
So, 17.03. 19:00 998 + 1,6
So, 17.03. 13:00 995 + 2,0
So, 17.03. 7:00 993 - 1,1
So, 17.03. 1:00 996 - 1,9
Ortszeit Luftdruck NN (hPa) Tendenz (hPa in 3 Std.)
Mo, 18.03. 20:30 1011 + 3,9
Mo, 18.03. 20:20 1011 keine Meldung
Mo, 18.03. 20:10 1011 keine Meldung
Mo, 18.03. 20:00 1011 + 3,8
Mo, 18.03. 19:50 1011 keine Meldung
Mo, 18.03. 19:40 1010 keine Meldung
Mo, 18.03. 19:30 1010 + 4,0
Mo, 18.03. 19:00 1010 + 3,8
Mo, 18.03. 18:30 1009 + 3,6
Mo, 18.03. 18:00 1008 + 2,9
Mo, 18.03. 17:30 1007 + 3,0
Ortszeit Schneehöhe (cm)
Mo, 18.03. 19:00 0
Mo, 18.03. 13:00 0
Mo, 18.03. 7:00 0
Mo, 18.03. 1:00 0
So, 17.03. 19:00 0
So, 17.03. 13:00 0
So, 17.03. 7:00 0
So, 17.03. 1:00 0
Ortszeit Schneehöhe (cm)
Mo, 18.03. 20:30 0
Mo, 18.03. 20:20 0
Mo, 18.03. 20:10 0
Mo, 18.03. 20:00 0
Mo, 18.03. 19:50 0
Mo, 18.03. 19:40 0
Mo, 18.03. 19:30 0
Mo, 18.03. 19:00 0
Mo, 18.03. 18:30 0
Mo, 18.03. 18:00 0
Mo, 18.03. 17:30 0
Link zu dieser Seite / Seite empfehlen

Das Wetter in ...